sensor_id;sensor_type;location;lat;lon;timestamp;P1;durP1;ratioP1;P2;durP2;ratioP2
33840;SDS011;20142;28.494;-16.312;2023-03-01T00:01:21;6.97;;;1.55;;
33840;SDS011;20142;28.494;-16.312;2023-03-01T00:06:27;5.72;;;1.27;;
33840;SDS011;20142;28.494;-16.312;2023-03-01T00:11:29;8.73;;;1.27;;
33840;SDS011;20142;28.494;-16.312;2023-03-01T00:16:35;6.00;;;1.30;;
33840;SDS011;20142;28.494;-16.312;2023-03-01T00:21:42;8.77;;;1.50;;
33840;SDS011;20142;28.494;-16.312;2023-03-01T00:31:47;2.20;;;0.90;;
33840;SDS011;20142;28.494;-16.312;2023-03-01T00:36:48;6.13;;;1.10;;
33840;SDS011;20142;28.494;-16.312;2023-03-01T00:41:50;7.97;;;0.90;;
33840;SDS011;20142;28.494;-16.312;2023-03-01T00:46:51;3.63;;;0.80;;
33840;SDS011;20142;28.494;-16.312;2023-03-01T00:51:53;4.18;;;1.00;;
33840;SDS011;20142;28.494;-16.312;2023-03-01T00:56:55;5.38;;;0.98;;
33840;SDS011;20142;28.494;-16.312;2023-03-01T01:01:56;6.53;;;0.93;;
33840;SDS011;20142;28.494;-16.312;2023-03-01T01:06:59;4.47;;;0.77;;
33840;SDS011;20142;28.494;-16.312;2023-03-01T01:12:01;4.97;;;0.73;;
33840;SDS011;20142;28.494;-16.312;2023-03-01T01:17:03;7.85;;;1.23;;
33840;SDS011;20142;28.494;-16.312;2023-03-01T01:22:05;8.57;;;1.10;;
33840;SDS011;20142;28.494;-16.312;2023-03-01T01:27:07;6.45;;;1.17;;
33840;SDS011;20142;28.494;-16.312;2023-03-01T01:32:08;11.85;;;1.95;;
33840;SDS011;20142;28.494;-16.312;2023-03-01T01:37:10;7.07;;;1.08;;
33840;SDS011;20142;28.494;-16.312;2023-03-01T01:42:15;5.85;;;1.30;;
33840;SDS011;20142;28.494;-16.312;2023-03-01T01:47:19;8.13;;;1.83;;
33840;SDS011;20142;28.494;-16.312;2023-03-01T01:52:27;10.27;;;1.67;;
33840;SDS011;20142;28.494;-16.312;2023-03-01T01:57:40;12.73;;;2.45;;
33840;SDS011;20142;28.494;-16.312;2023-03-01T02:02:46;9.73;;;2.58;;
33840;SDS011;20142;28.494;-16.312;2023-03-01T02:07:55;7.50;;;2.00;;
33840;SDS011;20142;28.494;-16.312;2023-03-01T02:12:59;6.90;;;1.70;;
33840;SDS011;20142;28.494;-16.312;2023-03-01T02:18:04;6.68;;;2.90;;
33840;SDS011;20142;28.494;-16.312;2023-03-01T02:23:07;6.72;;;1.80;;
33840;SDS011;20142;28.494;-16.312;2023-03-01T02:33:17;9.25;;;3.20;;
33840;SDS011;20142;28.494;-16.312;2023-03-01T02:38:18;9.45;;;2.83;;
33840;SDS011;20142;28.494;-16.312;2023-03-01T02:43:22;15.90;;;2.60;;
33840;SDS011;20142;28.494;-16.312;2023-03-01T02:48:38;9.50;;;1.83;;
33840;SDS011;20142;28.494;-16.312;2023-03-01T02:59:31;9.35;;;2.53;;
33840;SDS011;20142;28.494;-16.312;2023-03-01T03:04:39;11.98;;;3.67;;
33840;SDS011;20142;28.494;-16.312;2023-03-01T03:09:42;13.73;;;4.20;;
33840;SDS011;20142;28.494;-16.312;2023-03-01T03:14:43;10.25;;;3.35;;
33840;SDS011;20142;28.494;-16.312;2023-03-01T03:19:45;12.10;;;3.70;;
33840;SDS011;20142;28.494;-16.312;2023-03-01T03:24:47;8.88;;;3.33;;
33840;SDS011;20142;28.494;-16.312;2023-03-01T03:29:48;8.57;;;3.10;;
33840;SDS011;20142;28.494;-16.312;2023-03-01T03:34:50;8.50;;;2.97;;
33840;SDS011;20142;28.494;-16.312;2023-03-01T03:39:52;7.65;;;2.17;;
33840;SDS011;20142;28.494;-16.312;2023-03-01T03:44:55;4.32;;;1.63;;
33840;SDS011;20142;28.494;-16.312;2023-03-01T03:49:57;9.98;;;2.00;;
33840;SDS011;20142;28.494;-16.312;2023-03-01T03:54:58;7.45;;;1.70;;
33840;SDS011;20142;28.494;-16.312;2023-03-01T04:00:00;12.07;;;1.58;;
33840;SDS011;20142;28.494;-16.312;2023-03-01T04:05:05;7.90;;;1.77;;
33840;SDS011;20142;28.494;-16.312;2023-03-01T04:10:10;10.82;;;2.20;;
33840;SDS011;20142;28.494;-16.312;2023-03-01T04:15:14;7.05;;;1.90;;
33840;SDS011;20142;28.494;-16.312;2023-03-01T04:25:28;9.65;;;2.45;;
33840;SDS011;20142;28.494;-16.312;2023-03-01T04:30:30;7.20;;;1.70;;
33840;SDS011;20142;28.494;-16.312;2023-03-01T04:35:36;11.88;;;2.45;;
33840;SDS011;20142;28.494;-16.312;2023-03-01T04:40:39;8.25;;;1.50;;
33840;SDS011;20142;28.494;-16.312;2023-03-01T04:45:43;4.60;;;1.23;;
33840;SDS011;20142;28.494;-16.312;2023-03-01T04:50:44;6.78;;;1.20;;
33840;SDS011;20142;28.494;-16.312;2023-03-01T04:55:46;8.55;;;1.58;;
33840;SDS011;20142;28.494;-16.312;2023-03-01T05:00:48;8.45;;;1.27;;
33840;SDS011;20142;28.494;-16.312;2023-03-01T05:05:50;11.02;;;1.88;;
33840;SDS011;20142;28.494;-16.312;2023-03-01T05:10:53;4.78;;;1.40;;
33840;SDS011;20142;28.494;-16.312;2023-03-01T05:15:59;3.33;;;0.90;;
33840;SDS011;20142;28.494;-16.312;2023-03-01T05:21:04;9.48;;;1.58;;
33840;SDS011;20142;28.494;-16.312;2023-03-01T05:26:10;6.88;;;1.35;;
33840;SDS011;20142;28.494;-16.312;2023-03-01T05:31:13;5.45;;;1.50;;
33840;SDS011;20142;28.494;-16.312;2023-03-01T05:36:14;11.05;;;1.77;;
33840;SDS011;20142;28.494;-16.312;2023-03-01T05:41:16;9.73;;;1.67;;
33840;SDS011;20142;28.494;-16.312;2023-03-01T05:46:18;11.30;;;1.75;;
33840;SDS011;20142;28.494;-16.312;2023-03-01T05:51:19;6.15;;;1.58;;
33840;SDS011;20142;28.494;-16.312;2023-03-01T05:56:22;8.95;;;1.92;;
33840;SDS011;20142;28.494;-16.312;2023-03-01T06:01:24;9.38;;;1.42;;
33840;SDS011;20142;28.494;-16.312;2023-03-01T06:06:26;7.60;;;1.60;;
33840;SDS011;20142;28.494;-16.312;2023-03-01T06:11:28;7.65;;;1.30;;
33840;SDS011;20142;28.494;-16.312;2023-03-01T06:16:30;5.55;;;1.10;;
33840;SDS011;20142;28.494;-16.312;2023-03-01T06:21:31;9.70;;;1.55;;
33840;SDS011;20142;28.494;-16.312;2023-03-01T06:26:33;7.30;;;1.63;;
33840;SDS011;20142;28.494;-16.312;2023-03-01T06:31:35;8.82;;;1.52;;
33840;SDS011;20142;28.494;-16.312;2023-03-01T06:36:36;7.85;;;1.60;;
33840;SDS011;20142;28.494;-16.312;2023-03-01T06:41:38;5.90;;;1.58;;
33840;SDS011;20142;28.494;-16.312;2023-03-01T06:46:40;7.70;;;2.15;;
33840;SDS011;20142;28.494;-16.312;2023-03-01T06:51:41;8.43;;;2.00;;
33840;SDS011;20142;28.494;-16.312;2023-03-01T06:56:46;8.85;;;2.33;;
33840;SDS011;20142;28.494;-16.312;2023-03-01T07:01:48;7.57;;;1.38;;
33840;SDS011;20142;28.494;-16.312;2023-03-01T07:06:50;8.45;;;1.73;;
33840;SDS011;20142;28.494;-16.312;2023-03-01T07:11:55;7.90;;;1.30;;
33840;SDS011;20142;28.494;-16.312;2023-03-01T07:16:57;6.50;;;1.25;;
33840;SDS011;20142;28.494;-16.312;2023-03-01T07:21:59;8.25;;;1.40;;
33840;SDS011;20142;28.494;-16.312;2023-03-01T07:27:01;9.13;;;1.40;;
33840;SDS011;20142;28.494;-16.312;2023-03-01T07:32:03;9.15;;;1.55;;
33840;SDS011;20142;28.494;-16.312;2023-03-01T07:37:06;8.95;;;1.30;;
33840;SDS011;20142;28.494;-16.312;2023-03-01T07:42:07;6.25;;;1.13;;
33840;SDS011;20142;28.494;-16.312;2023-03-01T07:47:09;6.72;;;1.20;;
33840;SDS011;20142;28.494;-16.312;2023-03-01T07:52:11;2.85;;;0.60;;
33840;SDS011;20142;28.494;-16.312;2023-03-01T07:57:13;3.00;;;0.90;;
33840;SDS011;20142;28.494;-16.312;2023-03-01T08:02:14;7.32;;;1.52;;
33840;SDS011;20142;28.494;-16.312;2023-03-01T08:07:16;5.78;;;1.10;;
33840;SDS011;20142;28.494;-16.312;2023-03-01T08:12:18;7.20;;;1.10;;
33840;SDS011;20142;28.494;-16.312;2023-03-01T08:17:19;5.28;;;0.90;;
33840;SDS011;20142;28.494;-16.312;2023-03-01T08:22:21;5.78;;;0.98;;
33840;SDS011;20142;28.494;-16.312;2023-03-01T08:27:23;3.65;;;1.00;;
33840;SDS011;20142;28.494;-16.312;2023-03-01T08:32:25;4.10;;;1.00;;
33840;SDS011;20142;28.494;-16.312;2023-03-01T08:37:26;6.00;;;0.90;;
33840;SDS011;20142;28.494;-16.312;2023-03-01T08:42:32;4.93;;;0.90;;
33840;SDS011;20142;28.494;-16.312;2023-03-01T08:47:34;5.32;;;0.60;;
33840;SDS011;20142;28.494;-16.312;2023-03-01T08:52:35;6.13;;;1.10;;
33840;SDS011;20142;28.494;-16.312;2023-03-01T08:57:37;8.75;;;1.15;;
33840;SDS011;20142;28.494;-16.312;2023-03-01T09:02:39;5.30;;;0.98;;
33840;SDS011;20142;28.494;-16.312;2023-03-01T09:07:40;4.35;;;0.93;;
33840;SDS011;20142;28.494;-16.312;2023-03-01T09:12:42;8.95;;;1.38;;
33840;SDS011;20142;28.494;-16.312;2023-03-01T09:17:44;7.43;;;1.30;;
33840;SDS011;20142;28.494;-16.312;2023-03-01T09:22:45;3.88;;;0.55;;
33840;SDS011;20142;28.494;-16.312;2023-03-01T09:27:47;4.80;;;1.08;;
33840;SDS011;20142;28.494;-16.312;2023-03-01T09:32:52;7.95;;;1.00;;
33840;SDS011;20142;28.494;-16.312;2023-03-01T09:37:53;6.22;;;0.95;;
33840;SDS011;20142;28.494;-16.312;2023-03-01T09:42:57;5.80;;;1.00;;
33840;SDS011;20142;28.494;-16.312;2023-03-01T09:48:18;7.60;;;0.98;;
33840;SDS011;20142;28.494;-16.312;2023-03-01T09:53:31;6.18;;;1.27;;
33840;SDS011;20142;28.494;-16.312;2023-03-01T10:09:34;9.43;;;1.65;;
33840;SDS011;20142;28.494;-16.312;2023-03-01T10:14:53;7.55;;;1.58;;
33840;SDS011;20142;28.494;-16.312;2023-03-01T10:30:39;7.43;;;1.10;;
33840;SDS011;20142;28.494;-16.312;2023-03-01T10:35:44;7.28;;;1.20;;
33840;SDS011;20142;28.494;-16.312;2023-03-01T10:41:05;6.95;;;1.35;;
33840;SDS011;20142;28.494;-16.312;2023-03-01T10:51:31;3.33;;;1.02;;
33840;SDS011;20142;28.494;-16.312;2023-03-01T10:56:45;9.30;;;1.77;;
33840;SDS011;20142;28.494;-16.312;2023-03-01T11:07:22;7.53;;;1.35;;
33840;SDS011;20142;28.494;-16.312;2023-03-01T11:12:24;4.60;;;1.10;;
33840;SDS011;20142;28.494;-16.312;2023-03-01T11:17:30;7.57;;;1.63;;
33840;SDS011;20142;28.494;-16.312;2023-03-01T11:22:33;3.22;;;0.82;;
33840;SDS011;20142;28.494;-16.312;2023-03-01T11:27:38;8.90;;;1.50;;
33840;SDS011;20142;28.494;-16.312;2023-03-01T11:43:26;5.70;;;1.20;;
33840;SDS011;20142;28.494;-16.312;2023-03-01T11:59:22;8.93;;;1.50;;
33840;SDS011;20142;28.494;-16.312;2023-03-01T12:48:54;4.55;;;0.82;;
33840;SDS011;20142;28.494;-16.312;2023-03-01T12:54:19;6.47;;;1.10;;
33840;SDS011;20142;28.494;-16.312;2023-03-01T13:10:36;8.93;;;1.48;;
33840;SDS011;20142;28.494;-16.312;2023-03-01T13:15:44;4.90;;;1.50;;
33840;SDS011;20142;28.494;-16.312;2023-03-01T13:21:06;8.77;;;1.17;;
33840;SDS011;20142;28.494;-16.312;2023-03-01T13:46:44;9.25;;;1.65;;
33840;SDS011;20142;28.494;-16.312;2023-03-01T13:51:47;4.97;;;1.60;;
33840;SDS011;20142;28.494;-16.312;2023-03-01T13:56:50;7.10;;;1.27;;
33840;SDS011;20142;28.494;-16.312;2023-03-01T14:01:56;6.55;;;1.40;;
33840;SDS011;20142;28.494;-16.312;2023-03-01T14:07:10;5.20;;;1.42;;
33840;SDS011;20142;28.494;-16.312;2023-03-01T14:22:55;5.43;;;1.35;;
33840;SDS011;20142;28.494;-16.312;2023-03-01T14:28:02;3.63;;;1.23;;
33840;SDS011;20142;28.494;-16.312;2023-03-01T14:38:44;5.82;;;1.20;;
33840;SDS011;20142;28.494;-16.312;2023-03-01T14:44:00;6.10;;;1.38;;
33840;SDS011;20142;28.494;-16.312;2023-03-01T14:49:10;6.90;;;1.55;;
33840;SDS011;20142;28.494;-16.312;2023-03-01T14:59:43;10.07;;;1.60;;
33840;SDS011;20142;28.494;-16.312;2023-03-01T15:04:46;8.30;;;1.83;;
33840;SDS011;20142;28.494;-16.312;2023-03-01T15:09:57;5.80;;;1.50;;
33840;SDS011;20142;28.494;-16.312;2023-03-01T15:15:00;5.85;;;1.55;;
33840;SDS011;20142;28.494;-16.312;2023-03-01T15:20:20;8.10;;;1.65;;
33840;SDS011;20142;28.494;-16.312;2023-03-01T15:25:27;5.15;;;1.20;;
33840;SDS011;20142;28.494;-16.312;2023-03-01T15:30:34;7.18;;;1.42;;
33840;SDS011;20142;28.494;-16.312;2023-03-01T15:35:43;6.60;;;1.30;;
33840;SDS011;20142;28.494;-16.312;2023-03-01T15:40:49;3.70;;;1.17;;
33840;SDS011;20142;28.494;-16.312;2023-03-01T15:45:57;7.15;;;1.30;;
33840;SDS011;20142;28.494;-16.312;2023-03-01T15:50:59;10.02;;;1.63;;
33840;SDS011;20142;28.494;-16.312;2023-03-01T15:56:02;5.80;;;1.35;;
33840;SDS011;20142;28.494;-16.312;2023-03-01T16:01:07;3.60;;;0.93;;
33840;SDS011;20142;28.494;-16.312;2023-03-01T16:06:14;4.45;;;1.10;;
33840;SDS011;20142;28.494;-16.312;2023-03-01T16:11:17;3.70;;;0.95;;
33840;SDS011;20142;28.494;-16.312;2023-03-01T16:16:20;4.50;;;0.80;;
33840;SDS011;20142;28.494;-16.312;2023-03-01T16:21:23;4.95;;;1.08;;
33840;SDS011;20142;28.494;-16.312;2023-03-01T16:26:26;4.43;;;1.20;;
33840;SDS011;20142;28.494;-16.312;2023-03-01T16:31:27;4.38;;;1.15;;
33840;SDS011;20142;28.494;-16.312;2023-03-01T16:36:29;6.63;;;1.25;;
33840;SDS011;20142;28.494;-16.312;2023-03-01T16:41:31;6.35;;;1.00;;
33840;SDS011;20142;28.494;-16.312;2023-03-01T16:46:33;6.28;;;1.48;;
33840;SDS011;20142;28.494;-16.312;2023-03-01T16:51:35;7.05;;;1.65;;
33840;SDS011;20142;28.494;-16.312;2023-03-01T16:56:36;4.32;;;1.35;;
33840;SDS011;20142;28.494;-16.312;2023-03-01T17:01:40;5.72;;;1.27;;
33840;SDS011;20142;28.494;-16.312;2023-03-01T17:06:42;7.00;;;1.20;;
33840;SDS011;20142;28.494;-16.312;2023-03-01T17:11:43;4.32;;;1.17;;
33840;SDS011;20142;28.494;-16.312;2023-03-01T17:16:45;6.55;;;1.42;;
33840;SDS011;20142;28.494;-16.312;2023-03-01T17:21:46;7.50;;;1.40;;
33840;SDS011;20142;28.494;-16.312;2023-03-01T17:26:48;8.57;;;1.33;;
33840;SDS011;20142;28.494;-16.312;2023-03-01T17:31:50;3.30;;;1.05;;
33840;SDS011;20142;28.494;-16.312;2023-03-01T17:36:54;6.30;;;1.30;;
33840;SDS011;20142;28.494;-16.312;2023-03-01T17:41:56;12.07;;;1.60;;
33840;SDS011;20142;28.494;-16.312;2023-03-01T17:46:57;8.02;;;1.40;;
33840;SDS011;20142;28.494;-16.312;2023-03-01T17:52:00;9.93;;;1.92;;
33840;SDS011;20142;28.494;-16.312;2023-03-01T17:57:02;6.95;;;1.38;;
33840;SDS011;20142;28.494;-16.312;2023-03-01T18:02:04;8.48;;;1.52;;
33840;SDS011;20142;28.494;-16.312;2023-03-01T18:07:05;4.93;;;1.33;;
33840;SDS011;20142;28.494;-16.312;2023-03-01T18:12:07;6.88;;;1.30;;
33840;SDS011;20142;28.494;-16.312;2023-03-01T18:17:10;5.68;;;1.25;;
33840;SDS011;20142;28.494;-16.312;2023-03-01T18:22:12;9.98;;;1.30;;
33840;SDS011;20142;28.494;-16.312;2023-03-01T18:27:14;10.73;;;1.70;;
33840;SDS011;20142;28.494;-16.312;2023-03-01T18:32:15;7.00;;;1.52;;
33840;SDS011;20142;28.494;-16.312;2023-03-01T18:37:17;11.98;;;1.83;;
33840;SDS011;20142;28.494;-16.312;2023-03-01T18:42:19;7.38;;;2.35;;
33840;SDS011;20142;28.494;-16.312;2023-03-01T18:47:21;7.20;;;1.33;;
33840;SDS011;20142;28.494;-16.312;2023-03-01T18:52:23;4.78;;;1.55;;
33840;SDS011;20142;28.494;-16.312;2023-03-01T18:57:25;7.68;;;1.60;;
33840;SDS011;20142;28.494;-16.312;2023-03-01T19:02:27;9.10;;;1.73;;
33840;SDS011;20142;28.494;-16.312;2023-03-01T19:07:30;6.35;;;1.90;;
33840;SDS011;20142;28.494;-16.312;2023-03-01T19:12:33;7.90;;;1.98;;
33840;SDS011;20142;28.494;-16.312;2023-03-01T19:17:35;11.20;;;1.92;;
33840;SDS011;20142;28.494;-16.312;2023-03-01T19:22:37;6.45;;;1.73;;
33840;SDS011;20142;28.494;-16.312;2023-03-01T19:27:39;12.27;;;2.08;;
33840;SDS011;20142;28.494;-16.312;2023-03-01T19:32:40;11.02;;;2.40;;
33840;SDS011;20142;28.494;-16.312;2023-03-01T19:37:42;8.27;;;2.28;;
33840;SDS011;20142;28.494;-16.312;2023-03-01T19:42:44;10.43;;;2.00;;
33840;SDS011;20142;28.494;-16.312;2023-03-01T19:47:46;6.57;;;1.75;;
33840;SDS011;20142;28.494;-16.312;2023-03-01T19:52:48;7.35;;;2.10;;
33840;SDS011;20142;28.494;-16.312;2023-03-01T19:57:50;9.73;;;3.33;;
33840;SDS011;20142;28.494;-16.312;2023-03-01T20:02:52;9.23;;;2.80;;
33840;SDS011;20142;28.494;-16.312;2023-03-01T20:07:54;11.23;;;3.95;;
33840;SDS011;20142;28.494;-16.312;2023-03-01T20:12:57;7.95;;;2.60;;
33840;SDS011;20142;28.494;-16.312;2023-03-01T20:17:58;11.50;;;3.40;;
33840;SDS011;20142;28.494;-16.312;2023-03-01T20:23:00;13.30;;;3.17;;
33840;SDS011;20142;28.494;-16.312;2023-03-01T20:28:02;9.20;;;2.13;;
33840;SDS011;20142;28.494;-16.312;2023-03-01T20:33:04;8.55;;;2.47;;
33840;SDS011;20142;28.494;-16.312;2023-03-01T20:38:05;13.35;;;2.80;;
33840;SDS011;20142;28.494;-16.312;2023-03-01T20:43:07;11.20;;;2.45;;
33840;SDS011;20142;28.494;-16.312;2023-03-01T20:48:09;9.23;;;2.38;;
33840;SDS011;20142;28.494;-16.312;2023-03-01T20:53:10;8.35;;;1.92;;
33840;SDS011;20142;28.494;-16.312;2023-03-01T20:58:12;5.45;;;1.67;;
33840;SDS011;20142;28.494;-16.312;2023-03-01T21:03:14;3.35;;;1.60;;
33840;SDS011;20142;28.494;-16.312;2023-03-01T21:08:15;11.30;;;1.83;;
33840;SDS011;20142;28.494;-16.312;2023-03-01T21:13:17;7.57;;;1.60;;
33840;SDS011;20142;28.494;-16.312;2023-03-01T21:18:19;6.30;;;1.75;;
33840;SDS011;20142;28.494;-16.312;2023-03-01T21:23:21;6.75;;;1.77;;
33840;SDS011;20142;28.494;-16.312;2023-03-01T21:28:23;13.90;;;3.05;;
33840;SDS011;20142;28.494;-16.312;2023-03-01T21:33:24;8.60;;;2.58;;
33840;SDS011;20142;28.494;-16.312;2023-03-01T21:38:28;10.20;;;2.95;;
33840;SDS011;20142;28.494;-16.312;2023-03-01T21:43:31;5.72;;;2.00;;
33840;SDS011;20142;28.494;-16.312;2023-03-01T21:48:34;12.57;;;2.40;;
33840;SDS011;20142;28.494;-16.312;2023-03-01T21:53:35;7.80;;;1.73;;
33840;SDS011;20142;28.494;-16.312;2023-03-01T21:58:37;6.15;;;1.48;;
33840;SDS011;20142;28.494;-16.312;2023-03-01T22:03:41;6.13;;;1.65;;
33840;SDS011;20142;28.494;-16.312;2023-03-01T22:08:48;7.95;;;1.55;;
33840;SDS011;20142;28.494;-16.312;2023-03-01T22:13:53;10.68;;;1.75;;
33840;SDS011;20142;28.494;-16.312;2023-03-01T22:18:56;7.88;;;1.95;;
33840;SDS011;20142;28.494;-16.312;2023-03-01T22:23:58;7.65;;;2.20;;
33840;SDS011;20142;28.494;-16.312;2023-03-01T22:29:02;7.68;;;2.05;;
33840;SDS011;20142;28.494;-16.312;2023-03-01T22:34:09;6.80;;;1.88;;
33840;SDS011;20142;28.494;-16.312;2023-03-01T22:39:15;7.95;;;2.33;;
33840;SDS011;20142;28.494;-16.312;2023-03-01T22:44:20;9.60;;;1.97;;
33840;SDS011;20142;28.494;-16.312;2023-03-01T22:49:23;8.52;;;2.85;;
33840;SDS011;20142;28.494;-16.312;2023-03-01T22:54:25;10.15;;;2.63;;
33840;SDS011;20142;28.494;-16.312;2023-03-01T22:59:26;15.35;;;4.03;;
33840;SDS011;20142;28.494;-16.312;2023-03-01T23:04:28;17.75;;;5.78;;
33840;SDS011;20142;28.494;-16.312;2023-03-01T23:09:31;10.55;;;4.53;;
33840;SDS011;20142;28.494;-16.312;2023-03-01T23:14:34;8.85;;;3.97;;
33840;SDS011;20142;28.494;-16.312;2023-03-01T23:19:36;17.35;;;3.35;;
33840;SDS011;20142;28.494;-16.312;2023-03-01T23:24:38;12.30;;;2.83;;
33840;SDS011;20142;28.494;-16.312;2023-03-01T23:29:40;8.68;;;2.38;;
33840;SDS011;20142;28.494;-16.312;2023-03-01T23:34:44;7.35;;;1.90;;
33840;SDS011;20142;28.494;-16.312;2023-03-01T23:39:45;7.65;;;2.13;;
33840;SDS011;20142;28.494;-16.312;2023-03-01T23:44:47;9.75;;;2.15;;
33840;SDS011;20142;28.494;-16.312;2023-03-01T23:49:49;6.57;;;2.13;;
33840;SDS011;20142;28.494;-16.312;2023-03-01T23:54:51;9.45;;;2.03;;
33840;SDS011;20142;28.494;-16.312;2023-03-01T23:59:52;10.23;;;2.10;;
